Time;durP1;ratioP1;P1;durP2;ratioP2;P2;SDS_P1;SDS_P2;PMS_P1;PMS_P2;Temp;Humidity;BMP_temperature;BMP_pressure;BME280_temperature;BME280_humidity;BME280_pressure;Samples;Min_cycle;Max_cycle;Signal;HPM_P1;HPM_P2
2022/11/05 00:10:50;;;;;;;5.05;2.55;;;;;;;17.26;63.84;101534.69;4810978;29;20089;-85
2022/11/05 00:17:01;;;;;;;4.53;2.67;;;;;;;17.27;63.79;101554.66;4761970;29;20074;-84
2022/11/05 00:20:12;;;;;;;5.38;2.88;;;;;;;17.26;63.80;101555.50;4739362;30;20033;-85
2022/11/05 00:33:34;;;;;;;5.13;2.55;;;;;;;17.25;63.94;101557.22;4720480;30;20123;-85
2022/11/05 00:36:24;;;;;;;3.38;2.35;;;;;;;17.24;63.83;101559.81;4721052;30;20041;-85
2022/11/05 00:39:17;;;;;;;4.20;2.17;;;;;;;17.24;63.82;101568.47;4721386;30;20030;-84
2022/11/05 00:55:40;;;;;;;3.65;1.90;;;;;;;17.20;63.96;101576.28;4704384;30;20048;-84
2022/11/05 00:59:23;;;;;;;4.93;2.45;;;;;;;17.21;63.71;101583.22;4680519;30;20090;-85
2022/11/05 01:02:27;;;;;;;4.38;2.28;;;;;;;17.20;63.99;101578.88;4703026;30;20099;-84
2022/11/05 01:04:55;;;;;;;3.92;2.08;;;;;;;17.19;63.77;101575.41;4719549;30;20048;-83
2022/11/05 01:07:58;;;;;;;4.13;1.95;;;;;;;17.19;63.85;101579.75;4707187;30;20049;-84
2022/11/05 01:11:01;;;;;;;4.20;2.30;;;;;;;17.18;63.77;101576.28;4704004;30;20018;-84
2022/11/05 01:14:16;;;;;;;3.92;1.92;;;;;;;17.18;63.67;101571.09;4691583;30;20070;-84
2022/11/05 01:17:04;;;;;;;3.55;1.90;;;;;;;17.16;63.58;101566.72;4667056;30;20101;-84
2022/11/05 01:19:30;;;;;;;3.78;1.90;;;;;;;17.16;63.80;101564.13;4665627;30;20055;-84
2022/11/05 01:22:15;;;;;;;3.72;1.90;;;;;;;17.17;63.66;101571.06;4669410;30;20043;-85
2022/11/05 01:25:34;;;;;;;3.92;2.08;;;;;;;17.18;63.82;101580.59;4669016;30;20106;-85
2022/11/05 01:28:46;;;;;;;3.35;1.63;;;;;;;17.17;63.73;101578.88;4668972;30;20054;-84
2022/11/05 01:35:50;;;;;;;3.13;1.80;;;;;;;17.16;63.77;101575.41;4640992;30;20112;-85
2022/11/05 01:41:55;;;;;;;3.25;1.63;;;;;;;17.17;63.80;101571.06;4665732;30;20041;-84
2022/11/05 01:54:52;;;;;;;3.85;1.80;;;;;;;17.15;63.55;101565.00;4720735;30;20047;-85
2022/11/05 02:03:57;;;;;;;3.00;1.75;;;;;;;17.14;63.57;101571.94;4720517;30;20045;-85
2022/11/05 02:06:45;;;;;;;2.78;1.83;;;;;;;17.15;63.50;101571.06;4708515;30;20076;-84
2022/11/05 02:13:42;;;;;;;3.47;1.73;;;;;;;17.13;63.41;101566.72;4721236;30;20044;-85
2022/11/05 02:20:29;;;;;;;2.80;1.45;;;;;;;17.12;63.59;101573.66;4754998;30;20030;-84
2022/11/05 02:30:15;;;;;;;3.05;1.70;;;;;;;17.13;63.45;101577.97;4755483;30;20118;-83
2022/11/05 02:36:32;;;;;;;;;;;;;;;17.13;63.59;101584.94;4759588;30;20072;-84
2022/11/05 02:47:09;;;;;;;3.03;1.90;;;;;;;17.11;63.52;101568.44;4732243;30;20060;-85
2022/11/05 02:56:27;;;;;;;2.20;1.60;;;;;;;17.11;63.61;101565.84;4844796;29;20049;-85
2022/11/05 03:02:27;;;;;;;2.58;1.27;;;;;;;17.10;63.40;101569.31;4829425;29;20047;-84
2022/11/05 03:05:10;;;;;;;2.30;1.50;;;;;;;17.11;63.38;101574.50;4829113;29;20089;-85
2022/11/05 03:08:41;;;;;;;2.90;1.50;;;;;;;17.11;63.40;101568.44;4811867;29;20043;-84
2022/11/05 03:11:46;;;;;;;2.60;1.40;;;;;;;17.10;63.66;101566.72;4791447;30;20053;-83
2022/11/05 03:14:54;;;;;;;2.60;1.60;;;;;;;17.09;63.65;101565.81;4790300;29;20047;-84
2022/11/05 03:21:14;;;;;;;2.72;1.38;;;;;;;17.10;63.50;101569.31;4811599;29;20033;-84
2022/11/05 03:27:45;;;;;;;2.30;1.27;;;;;;;17.09;63.45;101575.38;4811805;29;20018;-84
2022/11/05 03:30:51;;;;;;;2.00;1.30;;;;;;;17.08;63.39;101563.25;4810574;30;20050;-84
2022/11/05 03:43:58;;;;;;;1.70;1.20;;;;;;;17.08;63.41;101563.25;4813140;29;20401;-87
2022/11/05 04:25:32;;;;;;;1.90;1.00;;;;;;;17.02;63.37;101577.94;4757223;30;20063;-84
2022/11/05 04:28:16;;;;;;;2.10;1.05;;;;;;;17.01;63.48;101586.59;4775601;30;20035;-84
2022/11/05 04:31:17;;;;;;;1.35;1.02;;;;;;;17.01;63.48;101586.59;4756110;30;20056;-84
2022/11/05 04:34:11;;;;;;;1.38;0.95;;;;;;;17.02;63.45;101583.13;4747003;30;20100;-86
2022/11/05 04:37:15;;;;;;;2.65;1.20;;;;;;;17.01;63.47;101580.56;4736296;30;20051;-83
2022/11/05 04:43:59;;;;;;;1.73;0.90;;;;;;;17.00;63.50;101587.47;4739658;30;20520;-84
2022/11/05 05:02:59;;;;;;;1.38;0.82;;;;;;;16.98;63.34;101601.31;4738944;30;20074;-84
2022/11/05 05:08:04;;;;;;;1.85;1.10;;;;;;;16.98;63.39;101604.78;5319762;24;20080;-83
2022/11/05 05:14:27;;;;;;;2.20;0.98;;;;;;;16.98;63.48;101601.31;4847722;29;20079;-84
2022/11/05 05:17:58;;;;;;;1.38;0.80;;;;;;;16.97;63.58;101597.00;4826045;29;20038;-84
2022/11/05 05:26:45;;;;;;;1.95;0.82;;;;;;;16.95;63.60;101596.13;4774834;30;20050;-83
2022/11/05 05:32:42;;;;;;;1.50;0.90;;;;;;;16.94;63.64;101590.06;4774357;30;20043;-86
2022/11/05 05:42:27;;;;;;;1.70;0.88;;;;;;;16.94;63.49;101592.66;4738117;30;20024;-84
2022/11/05 05:45:25;;;;;;;1.00;0.60;;;;;;;16.94;63.36;101594.34;4703567;30;20042;-84
2022/11/05 05:47:56;;;;;;;0.90;0.70;;;;;;;16.94;63.40;101596.97;4647206;30;20053;-84
2022/11/05 05:50:51;;;;;;;1.17;0.68;;;;;;;16.93;63.56;101598.69;4659427;30;20031;-85
2022/11/05 05:53:19;;;;;;;1.38;0.77;;;;;;;16.93;63.33;101603.03;4601410;31;20053;-85
2022/11/05 05:59:11;;;;;;;0.70;0.50;;;;;;;16.93;63.40;101603.03;4602201;31;20123;-84
2022/11/05 06:14:36;;;;;;;1.88;0.80;;;;;;;16.91;63.34;101610.81;4802451;29;20058;-84
2022/11/05 06:17:54;;;;;;;1.55;0.90;;;;;;;16.90;63.39;101606.50;4775750;30;20052;-84
2022/11/05 06:30:37;;;;;;;0.98;0.60;;;;;;;16.91;63.36;101621.22;4745493;30;20090;-84
2022/11/05 06:33:26;;;;;;;1.27;0.60;;;;;;;16.92;63.40;101622.06;4743029;30;20037;-83
2022/11/05 06:36:54;;;;;;;1.25;0.75;;;;;;;16.92;63.50;101622.97;4764535;30;20067;-84
2022/11/05 06:58:19;;;;;;;1.83;0.70;;;;;;;17.00;63.62;101629.06;5349802;24;20051;-85
2022/11/05 07:01:28;;;;;;;3.47;1.20;;;;;;;17.09;63.46;101633.44;4795151;29;20040;-83
2022/11/05 07:03:53;;;;;;;5.75;1.95;;;;;;;17.13;63.36;101632.59;4787854;29;20135;-81
2022/11/05 07:27:03;;;;;;;3.47;1.40;;;;;;;17.43;63.37;101642.28;4803127;30;20211;-82
2022/11/05 07:53:23;;;;;;;2.60;1.30;;;;;;;17.34;63.78;101644.84;4706490;30;20080;-84
2022/11/05 07:56:31;;;;;;;3.42;1.60;;;;;;;17.36;63.49;101640.53;4679260;30;20030;-84
2022/11/05 08:06:20;;;;;;;2.28;1.30;;;;;;;17.41;63.42;101638.78;4784786;30;20086;-82
2022/11/05 08:12:01;;;;;;;2.45;1.20;;;;;;;17.69;62.77;101644.97;4926549;23;20053;-84
2022/11/05 08:25:30;;;;;;;2.03;1.00;;;;;;;17.76;62.95;101661.47;4784947;29;20055;-84
2022/11/05 08:43:50;;;;;;;1.52;0.98;;;;;;;17.46;63.72;101657.03;4879291;24;20048;-84
2022/11/05 08:46:40;;;;;;;3.45;1.10;;;;;;;17.43;63.87;101657.88;4848932;29;20057;-83
2022/11/05 08:55:50;;;;;;;1.80;0.88;;;;;;;17.42;64.01;101676.97;4847715;29;20075;-82
2022/11/05 09:09:18;;;;;;;2.47;1.00;;;;;;;17.54;63.52;101659.66;4836618;29;20050;-83
2022/11/05 09:12:10;;;;;;;2.08;0.90;;;;;;;17.65;63.44;101664.03;4773486;30;20040;-82
2022/11/05 09:14:37;;;;;;;2.97;1.00;;;;;;;17.71;63.21;101663.19;4770069;30;20058;-80
2022/11/05 09:17:02;;;;;;;2.42;1.10;;;;;;;17.79;63.08;101663.22;4749694;30;20508;-81
2022/11/05 09:19:31;;;;;;;2.63;1.05;;;;;;;17.80;62.98;101667.56;4731900;30;20048;-81
2022/11/05 09:21:58;;;;;;;2.10;1.20;;;;;;;17.80;63.08;101663.22;4745706;30;20084;-80
2022/11/05 09:24:26;;;;;;;11.82;4.10;;;;;;;17.78;63.27;101664.09;4753939;30;20095;-83
2022/11/05 09:26:54;;;;;;;16.77;5.82;;;;;;;17.74;63.27;101668.41;4785630;30;20075;-82
2022/11/05 09:29:44;;;;;;;23.85;6.18;;;;;;;17.76;63.50;101661.47;4801964;29;20051;-83
2022/11/05 09:32:23;;;;;;;24.80;5.93;;;;;;;17.78;63.19;101661.47;4791372;30;20057;-81
2022/11/05 09:35:11;;;;;;;25.08;5.28;;;;;;;17.74;63.38;101663.19;4803005;29;20039;-84
2022/11/05 09:38:22;;;;;;;13.50;4.53;;;;;;;17.69;63.50;101660.59;4778652;30;20078;-85
2022/11/05 09:41:25;;;;;;;14.57;4.50;;;;;;;17.71;63.47;101670.16;4793904;30;20016;-86
2022/11/05 09:44:10;;;;;;;13.73;4.35;;;;;;;17.67;63.47;101672.72;4825406;29;20039;-85
2022/11/05 09:47:23;;;;;;;11.18;4.07;;;;;;;17.67;63.22;101670.13;4801679;30;20058;-81
2022/11/05 09:50:40;;;;;;;9.32;3.63;;;;;;;17.68;63.22;101664.06;4801031;30;20115;-84
2022/11/05 09:53:24;;;;;;;10.13;3.20;;;;;;;17.71;63.15;101668.41;4798960;30;20043;-83
2022/11/05 09:56:13;;;;;;;10.88;3.22;;;;;;;17.74;63.22;101668.41;4800703;30;20047;-82
2022/11/05 10:13:32;;;;;;;6.05;2.63;;;;;;;17.68;63.35;101658.84;5208532;24;20042;-83
2022/11/05 10:16:19;;;;;;;7.43;2.38;;;;;;;17.65;63.32;101663.19;4841378;29;20038;-83
2022/11/05 10:18:53;;;;;;;8.70;2.58;;;;;;;17.59;63.72;101669.22;4847135;29;20090;-84
2022/11/05 10:23:50;;;;;;;7.03;2.28;;;;;;;17.52;63.70;101669.19;4844001;29;20055;-83
2022/11/05 10:26:21;;;;;;;7.35;2.13;;;;;;;17.50;63.80;101669.19;4830979;29;20038;-84
2022/11/05 10:28:48;;;;;;;6.47;2.50;;;;;;;17.52;63.85;101672.66;4830402;29;20053;-83
2022/11/05 10:31:56;;;;;;;6.55;2.53;;;;;;;17.52;63.55;101667.47;4847431;29;20015;-84
2022/11/05 10:34:46;;;;;;;5.35;2.15;;;;;;;17.57;63.66;101667.47;4776126;30;20047;-82
2022/11/05 10:37:50;;;;;;;5.85;2.63;;;;;;;17.63;63.37;101670.09;4788611;29;20063;-83
2022/11/05 10:40:53;;;;;;;7.25;2.85;;;;;;;17.67;63.12;101669.25;4788610;30;20062;-82
2022/11/05 10:47:08;;;;;;;5.82;2.50;;;;;;;17.70;63.28;101669.25;4789322;30;20050;-82
2022/11/05 10:49:58;;;;;;;5.80;2.05;;;;;;;17.70;63.10;101669.25;4757066;30;20135;-81
2022/11/05 10:52:28;;;;;;;5.22;2.15;;;;;;;17.67;63.16;101664.06;4768215;30;20040;-81
2022/11/05 10:58:40;;;;;;;4.80;2.03;;;;;;;17.63;63.19;101672.72;4787016;30;20152;-82
2022/11/05 11:01:22;;;;;;;4.78;2.15;;;;;;;17.63;63.09;101670.97;4760967;30;20059;-83
2022/11/05 11:04:06;;;;;;;5.53;2.25;;;;;;;17.64;63.14;101677.06;4774364;30;20413;-82
2022/11/05 11:07:10;;;;;;;12.93;2.30;;;;;;;17.65;63.11;101671.84;4831179;29;20046;-83
2022/11/05 11:10:01;;;;;;;8.88;1.98;;;;;;;17.73;63.47;101676.22;4837116;29;20033;-81
2022/11/05 11:19:28;;;;;;;6.03;2.10;;;;;;;17.45;68.91;101679.59;4795285;29;20063;-83
2022/11/05 11:22:05;;;;;;;7.95;2.45;;;;;;;17.35;68.08;101676.94;4791126;30;20059;-82
2022/11/05 11:28:26;;;;;;;6.47;1.88;;;;;;;17.15;67.50;101669.03;4776264;30;20115;-84
2022/11/05 11:31:32;;;;;;;8.10;2.22;;;;;;;17.13;67.91;101671.59;4775254;30;20071;-83
2022/11/05 11:45:30;;;;;;;4.53;2.33;;;;;;;17.08;67.44;101675.06;4739442;30;20051;-82
2022/11/05 11:48:14;;;;;;;5.20;1.83;;;;;;;17.11;67.90;101665.53;4704684;30;20104;-83
2022/11/05 12:02:05;;;;;;;3.90;1.65;;;;;;;17.10;67.76;101670.75;4721187;30;20124;-82
2022/11/05 12:05:11;;;;;;;4.43;1.65;;;;;;;17.08;67.34;101667.25;4602204;31;20044;-83
2022/11/05 12:07:59;;;;;;;4.53;1.80;;;;;;;17.09;67.38;101661.19;4594832;31;20051;-85
2022/11/05 12:11:00;;;;;;;5.20;1.75;;;;;;;17.08;67.65;101654.25;4592182;31;20048;-82
2022/11/05 12:14:03;;;;;;;5.15;2.03;;;;;;;17.06;67.59;101656.84;4626082;31;20058;-81
2022/11/05 12:21:03;;;;;;;9.13;1.80;;;;;;;17.05;68.00;101653.38;4701039;30;20044;-83
2022/11/05 12:23:57;;;;;;;4.68;1.63;;;;;;;17.09;67.56;101656.84;4711381;30;20060;-81
2022/11/05 12:27:10;;;;;;;3.70;1.83;;;;;;;17.11;67.87;101649.91;4753469;30;20104;-83
2022/11/05 12:56:08;;;;;;;4.75;1.52;;;;;;;17.03;67.69;101613.50;5162240;24;20071;-85
2022/11/05 12:59:35;;;;;;;2.80;1.35;;;;;;;17.06;67.71;101610.03;4814389;29;20074;-84
2022/11/05 13:02:32;;;;;;;3.40;1.67;;;;;;;17.08;67.83;101597.03;4688342;30;20058;-84
2022/11/05 13:05:47;;;;;;;2.78;1.67;;;;;;;17.08;68.32;101604.84;4788358;30;20043;-84
2022/11/05 13:15:38;;;;;;;4.13;1.60;;;;;;;17.01;69.99;101607.41;4759437;30;20035;-86
2022/11/05 13:18:10;;;;;;;;;;;;;;;17.04;69.63;101602.22;4754400;30;20037;-82
2022/11/05 13:20:40;;;;;;;4.97;1.75;;;;;;;17.17;71.68;101599.69;4752627;30;19914;-83
2022/11/05 13:23:44;;;;;;;6.55;1.90;;;;;;;17.15;70.51;101597.06;4752501;30;20057;-82
2022/11/05 13:26:35;;;;;;;9.80;1.92;;;;;;;17.10;73.76;101592.72;4753147;30;20072;-83
2022/11/05 13:32:28;;;;;;;3.88;1.60;;;;;;;16.99;69.35;101588.34;4757163;30;20054;-85
2022/11/05 13:35:31;;;;;;;3.95;1.60;;;;;;;16.95;69.03;101596.97;4754068;30;20515;-83
2022/11/05 13:41:03;;;;;;;4.75;1.70;;;;;;;16.91;68.62;101592.63;4776341;30;20176;-82
2022/11/05 13:43:45;;;;;;;5.63;1.60;;;;;;;16.88;69.22;101596.94;4789600;29;20040;-79
2022/11/05 13:46:29;;;;;;;7.88;1.58;;;;;;;16.86;68.79;101604.72;4786749;30;20090;-81
2022/11/05 13:49:12;;;;;;;6.32;1.50;;;;;;;16.86;68.34;101595.19;4797462;30;20034;-81
2022/11/05 13:52:24;;;;;;;6.33;1.80;;;;;;;16.88;69.24;101589.16;4799344;29;20031;-82
2022/11/05 13:55:41;;;;;;;5.40;1.85;;;;;;;16.87;68.53;101588.25;4780755;30;20277;-81
2022/11/05 13:58:33;;;;;;;4.95;1.73;;;;;;;16.91;68.12;101590.03;4755959;30;20112;-82
2022/11/05 14:01:05;;;;;;;2.78;1.20;;;;;;;16.93;67.79;101587.44;4778429;30;20028;-81
2022/11/05 14:03:30;;;;;;;3.40;1.60;;;;;;;16.95;67.88;101577.91;4780744;30;20040;-81
2022/11/05 14:06:07;;;;;;;3.50;1.55;;;;;;;16.95;68.69;101583.97;4778126;30;20046;-81
2022/11/05 14:08:39;;;;;;;3.90;1.40;;;;;;;16.94;68.18;101590.06;4777110;30;20035;-81
2022/11/05 14:11:17;;;;;;;5.38;1.63;;;;;;;16.94;68.27;101589.16;4796661;29;20062;-83
2022/11/05 14:13:45;;;;;;;3.85;1.50;;;;;;;16.94;68.59;101587.44;4781144;30;20476;-83
2022/11/05 14:16:19;;;;;;;4.75;1.40;;;;;;;16.93;68.69;101585.69;4782239;30;20031;-82
2022/11/05 14:18:45;;;;;;;5.55;1.60;;;;;;;16.93;68.89;101584.84;4774994;30;20387;-81
2022/11/05 14:21:26;;;;;;;3.67;1.25;;;;;;;16.92;68.74;101583.06;4775362;30;20036;-81
2022/11/05 14:23:53;;;;;;;5.20;1.30;;;;;;;16.90;68.87;101577.91;4778512;30;20028;-81
2022/11/05 14:26:25;;;;;;;4.53;1.30;;;;;;;16.91;68.50;101583.97;4776447;30;20059;-81
2022/11/05 14:29:02;;;;;;;3.42;1.10;;;;;;;16.88;68.74;101583.94;4777798;30;20035;-82
2022/11/05 14:31:29;;;;;;;2.33;1.20;;;;;;;16.85;69.00;101580.47;4776763;30;20034;-81
2022/11/05 14:34:10;;;;;;;4.38;1.50;;;;;;;16.85;68.80;101582.19;4779168;30;20038;-82
2022/11/05 14:36:41;;;;;;;3.15;1.35;;;;;;;16.84;69.33;101585.66;4778796;30;20074;-81
2022/11/05 14:39:22;;;;;;;2.63;1.33;;;;;;;16.84;69.53;101585.66;4776922;30;20043;-81
2022/11/05 14:41:55;;;;;;;3.83;1.40;;;;;;;16.84;69.16;101583.06;4778258;30;20376;-82
2022/11/05 14:44:22;;;;;;;3.72;1.38;;;;;;;16.85;69.16;101580.47;4779206;30;20035;-82
2022/11/05 14:46:50;;;;;;;3.95;1.30;;;;;;;16.85;69.55;101580.47;4782576;30;20036;-82
2022/11/05 14:49:21;;;;;;;2.35;1.10;;;;;;;16.86;68.94;101578.75;4784841;30;20035;-82
2022/11/05 14:51:51;;;;;;;4.75;1.40;;;;;;;16.84;69.12;101570.06;4779570;30;20391;-81
2022/11/05 14:54:41;;;;;;;1.95;1.23;;;;;;;16.83;69.33;101583.91;4803648;29;20024;-82
2022/11/05 14:57:12;;;;;;;3.58;1.38;;;;;;;16.82;69.50;101580.44;4791433;30;20122;-82
2022/11/05 14:59:59;;;;;;;1.90;1.15;;;;;;;16.81;69.84;101576.13;4773540;30;20039;-82
2022/11/05 15:02:35;;;;;;;4.43;1.55;;;;;;;16.81;69.77;101573.50;4799348;30;20054;-82
2022/11/05 15:05:39;;;;;;;4.38;1.20;;;;;;;16.83;69.52;101565.69;4799759;29;20738;-82
2022/11/05 15:08:26;;;;;;;4.15;1.15;;;;;;;16.82;69.54;101566.59;4782984;30;20039;-82
2022/11/05 15:11:05;;;;;;;2.83;1.23;;;;;;;16.81;69.88;101565.72;4795473;30;20032;-80
2022/11/05 15:13:37;;;;;;;2.10;1.02;;;;;;;16.80;69.64;101566.56;4778297;30;20042;-80
2022/11/05 15:16:04;;;;;;;2.58;1.08;;;;;;;16.81;69.72;101564.81;4778028;30;20028;-81
2022/11/05 15:18:44;;;;;;;3.00;1.30;;;;;;;16.79;70.16;101570.00;4793772;29;20027;-81
2022/11/05 15:21:15;;;;;;;3.17;1.35;;;;;;;16.80;69.48;101574.34;4781752;30;20117;-82
2022/11/05 15:23:43;;;;;;;2.47;1.10;;;;;;;16.79;69.80;101576.94;4803035;30;20032;-83
2022/11/05 15:26:15;;;;;;;5.65;1.33;;;;;;;16.78;69.67;101565.66;4783632;30;20027;-81
2022/11/05 15:28:46;;;;;;;2.35;1.25;;;;;;;16.78;69.61;101568.25;4798950;30;20055;-82
2022/11/05 15:31:12;;;;;;;2.75;1.20;;;;;;;16.85;69.31;101569.19;4802097;29;20058;-82
2022/11/05 15:33:38;;;;;;;2.80;1.15;;;;;;;16.84;68.93;101563.13;4803656;30;20027;-82
2022/11/05 15:36:28;;;;;;;4.13;1.30;;;;;;;16.83;68.96;101563.09;4790340;30;20035;-84
2022/11/05 15:38:54;;;;;;;2.72;1.30;;;;;;;16.82;69.69;101562.25;4805069;30;20065;-83
2022/11/05 15:41:30;;;;;;;4.07;1.27;;;;;;;16.81;69.60;101565.72;4805781;29;20024;-83
2022/11/05 15:43:56;;;;;;;4.03;1.38;;;;;;;16.81;69.27;101564.81;4808763;29;20058;-84
2022/11/05 15:46:29;;;;;;;3.15;1.30;;;;;;;16.82;69.15;101566.59;4809560;29;20042;-83
2022/11/05 15:49:01;;;;;;;2.13;1.20;;;;;;;16.81;69.57;101564.81;4779489;30;20027;-82
2022/11/05 15:51:28;;;;;;;2.65;1.30;;;;;;;16.80;69.79;101568.31;4807731;30;20056;-84
2022/11/05 15:54:02;;;;;;;5.10;1.33;;;;;;;16.80;69.49;101563.09;4808905;29;20031;-84
2022/11/05 15:56:32;;;;;;;2.15;1.05;;;;;;;16.80;69.41;101561.38;4806031;30;20612;-82
2022/11/05 15:59:12;;;;;;;2.88;1.20;;;;;;;16.81;69.63;101557.03;4806975;30;20055;-84
2022/11/05 16:01:46;;;;;;;4.30;1.40;;;;;;;16.81;69.50;101557.03;4793579;30;20031;-83
2022/11/05 16:04:18;;;;;;;2.10;1.30;;;;;;;16.80;69.34;101553.56;4807693;30;20034;-84
2022/11/05 16:06:47;;;;;;;3.60;1.30;;;;;;;16.82;69.48;101558.78;4788891;30;20059;-82
2022/11/05 16:09:22;;;;;;;4.40;1.38;;;;;;;16.81;69.50;101557.91;4787171;30;20057;-83
2022/11/05 16:11:48;;;;;;;4.38;1.60;;;;;;;16.82;69.73;101556.19;4786928;30;20139;-82
2022/11/05 16:14:16;;;;;;;4.25;1.38;;;;;;;16.82;69.15;101548.38;4801687;30;20031;-82
2022/11/05 16:16:43;;;;;;;5.07;1.40;;;;;;;16.82;69.38;101550.97;4784968;30;20130;-82
2022/11/05 16:19:34;;;;;;;2.63;1.38;;;;;;;16.80;69.83;101548.38;4758953;30;20038;-83
2022/11/05 16:22:04;;;;;;;3.63;1.30;;;;;;;16.80;69.73;101548.38;4801868;30;20056;-83
2022/11/05 16:24:30;;;;;;;4.15;1.25;;;;;;;16.80;69.76;101548.38;4785033;30;20031;-82
2022/11/05 16:26:57;;;;;;;3.92;1.30;;;;;;;16.81;69.75;101547.53;4801704;29;20039;-82
2022/11/05 16:29:36;;;;;;;3.70;1.30;;;;;;;16.82;69.50;101548.38;4777382;30;20102;-84
2022/11/05 16:32:14;;;;;;;5.97;1.80;;;;;;;16.82;69.65;101532.78;4807291;30;20059;-83
2022/11/05 16:34:45;;;;;;;3.45;1.45;;;;;;;16.82;69.34;101543.19;4807905;30;20466;-83
2022/11/05 16:37:13;;;;;;;3.75;1.27;;;;;;;16.81;69.81;101546.63;4808965;30;20015;-84
2022/11/05 16:39:39;;;;;;;3.70;1.33;;;;;;;16.81;69.84;101536.22;4802887;30;20031;-82
2022/11/05 16:42:26;;;;;;;4.80;1.30;;;;;;;16.81;69.87;101538.84;4805911;30;20039;-82
2022/11/05 16:44:53;;;;;;;3.45;1.50;;;;;;;16.80;69.77;101535.38;4802924;30;20035;-82
2022/11/05 16:47:20;;;;;;;3.83;1.38;;;;;;;16.81;69.75;101534.53;4800542;29;20090;-82
2022/11/05 16:49:49;;;;;;;2.10;1.17;;;;;;;16.80;69.91;101532.78;4779962;30;20100;-81
2022/11/05 16:52:36;;;;;;;2.60;1.40;;;;;;;16.83;69.69;101531.91;4785874;30;20095;-84
2022/11/05 16:55:40;;;;;;;17.00;3.33;;;;;;;16.92;71.46;101531.97;4768128;30;20036;-83
2022/11/05 16:58:16;;;;;;;36.33;8.02;;;;;;;17.12;72.93;101526.84;4746370;30;20053;-78
2022/11/05 17:00:42;;;;;;;30.67;7.60;;;;;;;17.18;73.11;101533.78;4725418;30;20043;-81
2022/11/05 17:03:07;;;;;;;23.00;6.20;;;;;;;17.08;71.92;101525.09;4723522;30;20131;-79
2022/11/05 17:05:33;;;;;;;15.95;4.88;;;;;;;17.02;72.22;101530.28;4738033;30;20041;-80
2022/11/05 17:08:00;;;;;;;20.10;5.00;;;;;;;16.98;71.84;101534.56;4721642;30;20048;-80
2022/11/05 17:10:26;;;;;;;17.88;5.00;;;;;;;16.94;71.51;101538.06;4707343;30;20406;-80
2022/11/05 17:12:52;;;;;;;12.95;4.80;;;;;;;16.85;73.13;101541.47;4738623;30;20083;-81
2022/11/05 17:15:19;;;;;;;17.00;5.38;;;;;;;16.80;73.88;101547.50;4723348;30;20041;-80
2022/11/05 17:17:45;;;;;;;10.00;4.18;;;;;;;16.76;73.61;101545.72;4721582;30;20127;-80
2022/11/05 17:20:29;;;;;;;13.32;4.25;;;;;;;16.69;74.88;101542.22;4721158;30;20040;-80
2022/11/05 17:22:55;;;;;;;11.90;4.20;;;;;;;16.66;74.29;101543.06;4721154;30;20597;-80
2022/11/05 17:25:21;;;;;;;11.38;4.07;;;;;;;16.63;75.25;101553.44;4746964;30;20123;-80
2022/11/05 17:27:47;;;;;;;12.38;4.07;;;;;;;16.63;74.28;101556.03;4756537;30;20055;-81
2022/11/05 17:30:12;;;;;;;11.98;4.38;;;;;;;16.60;75.69;101556.03;4743268;30;20032;-81
2022/11/05 17:32:38;;;;;;;17.15;4.50;;;;;;;16.60;75.29;101556.03;4763203;30;20067;-81
2022/11/05 17:35:04;;;;;;;11.93;4.13;;;;;;;16.60;74.92;101544.78;4766931;30;20032;-80
2022/11/05 17:37:30;;;;;;;10.00;4.25;;;;;;;16.58;74.65;101536.97;4745005;30;20377;-80
2022/11/05 17:39:55;;;;;;;13.63;4.78;;;;;;;16.58;74.65;101533.50;4758267;30;20043;-81
2022/11/05 17:42:21;;;;;;;12.18;3.97;;;;;;;16.56;75.09;101536.06;4757517;30;20058;-80
2022/11/05 17:44:46;;;;;;;7.72;3.97;;;;;;;16.56;75.35;101543.88;4743037;30;20047;-81
2022/11/05 17:47:12;;;;;;;9.85;3.83;;;;;;;16.56;75.19;101538.69;4761364;30;20048;-81
2022/11/05 17:49:37;;;;;;;9.05;4.43;;;;;;;16.55;75.45;101533.47;4755534;30;20070;-81
2022/11/05 17:52:02;;;;;;;8.25;4.53;;;;;;;16.54;76.07;101526.53;4770208;30;20028;-80
2022/11/05 17:54:28;;;;;;;10.32;4.03;;;;;;;16.54;76.04;101531.75;4755990;30;20070;-81
2022/11/05 17:56:53;;;;;;;9.55;4.40;;;;;;;16.52;75.95;101528.25;4778860;30;20089;-80
2022/11/05 17:59:19;;;;;;;9.18;4.65;;;;;;;16.52;76.25;101534.31;4775231;30;20119;-81
2022/11/05 18:01:44;;;;;;;8.73;3.95;;;;;;;16.53;76.13;101537.81;4775862;30;20551;-80
2022/11/05 18:04:11;;;;;;;9.88;4.00;;;;;;;16.52;76.46;101533.47;4774702;30;20063;-81
2022/11/05 18:06:38;;;;;;;7.75;3.75;;;;;;;16.49;75.86;101518.72;4759174;30;20484;-80
2022/11/05 18:09:05;;;;;;;9.60;4.18;;;;;;;16.51;76.11;101524.81;4774800;30;20040;-80
2022/11/05 18:11:31;;;;;;;8.40;3.90;;;;;;;16.51;75.78;101518.75;4773585;30;20040;-80
2022/11/05 18:13:57;;;;;;;9.52;3.95;;;;;;;16.48;76.04;101506.56;4760833;30;20030;-80
2022/11/05 18:16:37;;;;;;;7.10;3.58;;;;;;;16.50;76.21;101511.78;4779634;30;20039;-83
2022/11/05 18:19:28;;;;;;;9.55;3.63;;;;;;;16.48;76.81;101495.31;4762310;30;20051;-81
2022/11/05 18:21:54;;;;;;;9.15;3.70;;;;;;;16.49;76.22;101505.72;4767350;30;20035;-81
2022/11/05 18:25:04;;;;;;;6.30;3.42;;;;;;;16.49;75.71;101490.16;4765976;30;20120;-84
2022/11/05 18:27:48;;;;;;;7.15;3.78;;;;;;;16.49;76.10;101500.53;4774608;29;20026;-85
2022/11/05 18:30:52;;;;;;;7.55;3.75;;;;;;;16.50;75.80;101502.25;4734084;30;20053;-81
2022/11/05 18:34:09;;;;;;;;;;;;;;;;;;;;;
2022/11/05 18:36:52;;;;;;;8.60;4.15;;;;;;;16.49;76.53;101486.69;4669435;30;20077;-81
2022/11/05 18:53:19;;;;;;;11.80;4.68;;;;;;;16.58;74.91;101476.34;4707489;30;20120;-84
2022/11/05 19:03:06;;;;;;;11.15;4.18;;;;;;;16.58;74.25;101474.59;4720308;30;20084;-82
2022/11/05 19:22:54;;;;;;;9.27;4.05;;;;;;;16.59;74.58;101442.56;5374144;24;20058;-83
2022/11/05 19:26:13;;;;;;;9.60;3.63;;;;;;;16.60;74.07;101443.44;4863594;29;20042;-83
2022/11/05 19:32:29;;;;;;;10.13;3.78;;;;;;;16.59;73.85;101437.38;4823222;29;20034;-83
2022/11/05 19:35:59;;;;;;;9.77;3.60;;;;;;;16.60;74.29;101438.22;4810410;30;20126;-84
2022/11/05 19:39:00;;;;;;;8.02;3.92;;;;;;;16.58;74.01;101426.97;4781009;30;20047;-84
2022/11/05 19:42:19;;;;;;;9.43;3.67;;;;;;;16.58;74.00;101425.22;4760021;30;20027;-84
2022/11/05 22:50:52;;;;;;;3.80;1.75;;;;;;;16.56;72.21;101333.41;5900940;23;20820;31
2022/11/05 22:53:26;;;;;;;3.65;1.80;;;;;;;16.55;71.99;101323.00;4808682;29;20031;-81
2022/11/05 22:56:11;;;;;;;3.10;1.65;;;;;;;16.54;72.15;101324.75;4778850;30;20082;-84
2022/11/05 22:59:12;;;;;;;4.32;1.98;;;;;;;16.54;72.88;101335.13;4786861;29;20039;-85
2022/11/05 23:48:48;;;;;;;2.55;1.50;;;;;;;16.58;72.28;101321.28;4829989;29;20031;-82
2022/11/05 23:51:15;;;;;;;6.18;1.60;;;;;;;16.56;72.11;101312.63;4819353;29;20042;-82
2022/11/05 23:54:05;;;;;;;6.00;1.55;;;;;;;16.57;72.70;101309.19;4813715;29;20074;-83
